createdAt,value
2023-02-14T00:07:20.355Z,15.20
2023-02-14T00:09:54.470Z,15.82
2023-02-14T00:13:00.157Z,15.98
2023-02-14T00:15:27.024Z,15.50
2023-02-14T00:18:07.815Z,15.85
2023-02-14T00:20:38.738Z,17.45
2023-02-14T00:23:24.052Z,16.27
2023-02-14T00:25:50.821Z,15.30
2023-02-14T00:28:18.788Z,17.95
2023-02-14T00:30:47.669Z,16.67
2023-02-14T00:33:14.491Z,16.75
2023-02-14T00:35:41.257Z,17.67
2023-02-14T00:38:08.005Z,16.55
2023-02-14T00:40:34.747Z,18.02
2023-02-14T00:43:02.937Z,18.13
2023-02-14T00:45:48.073Z,15.55
2023-02-14T00:48:15.046Z,16.90
2023-02-14T00:50:45.639Z,15.98
2023-02-14T00:53:13.236Z,17.20
2023-02-14T00:55:40.169Z,14.85
2023-02-14T00:58:06.937Z,16.13
2023-02-14T01:00:45.650Z,15.43
2023-02-14T01:03:13.856Z,17.10
2023-02-14T01:05:44.272Z,16.33
2023-02-14T01:08:14.270Z,17.45
2023-02-14T01:10:41.848Z,18.38
2023-02-14T01:13:16.561Z,18.35
2023-02-14T01:15:47.959Z,14.85
2023-02-14T01:18:15.988Z,17.55
2023-02-14T01:20:42.944Z,18.80
2023-02-14T01:23:10.537Z,16.42
2023-02-14T01:25:39.234Z,22.38
2023-02-14T01:28:15.097Z,16.98
2023-02-14T01:30:43.421Z,18.98
2023-02-14T01:33:10.410Z,18.30
2023-02-14T01:35:40.516Z,17.98
2023-02-14T01:38:08.014Z,19.23
2023-02-14T01:40:43.791Z,19.58
2023-02-14T01:43:20.833Z,18.15
2023-02-14T01:45:47.762Z,19.73
2023-02-14T01:48:15.654Z,20.77
2023-02-14T01:50:45.340Z,21.45
2023-02-14T01:53:28.900Z,21.10
2023-02-14T01:56:05.970Z,18.42
2023-02-14T01:58:36.449Z,17.25
2023-02-14T02:01:06.453Z,18.92
2023-02-14T02:03:45.924Z,23.05
2023-02-14T02:06:30.031Z,21.08
2023-02-14T02:09:55.337Z,18.63
2023-02-14T02:12:36.717Z,19.58
2023-02-14T02:16:05.527Z,18.42
2023-02-14T02:19:01.803Z,21.42
2023-02-14T02:22:36.012Z,20.38
2023-02-14T02:26:05.163Z,17.98
2023-02-14T02:29:52.298Z,13.00
2023-02-14T02:33:28.580Z,18.48
2023-02-14T02:40:30.953Z,20.20
2023-02-14T02:43:39.001Z,21.48
2023-02-14T02:47:03.172Z,24.13
2023-02-14T02:50:39.969Z,25.90
2023-02-14T02:53:35.669Z,19.52
2023-02-14T02:56:52.791Z,22.42
2023-02-14T03:00:06.895Z,22.33
2023-02-14T03:03:24.652Z,25.70
2023-02-14T03:06:20.857Z,23.60
2023-02-14T03:09:38.345Z,23.13
2023-02-14T03:12:44.173Z,23.70
2023-02-14T03:24:55.506Z,22.40
2023-02-14T03:28:13.110Z,19.30
2023-02-14T03:31:03.834Z,22.63
2023-02-14T03:37:20.551Z,21.13
2023-02-14T03:40:10.720Z,25.95
2023-02-14T03:42:52.504Z,23.05
2023-02-14T03:45:33.707Z,22.75
2023-02-14T03:48:06.872Z,20.40
2023-02-14T03:50:36.626Z,22.02
2023-02-14T03:53:05.489Z,22.42
2023-02-14T03:56:05.038Z,24.40
2023-02-14T03:59:06.010Z,25.42
2023-02-14T04:02:16.783Z,23.20
2023-02-14T04:04:46.837Z,21.10
2023-02-14T04:07:20.865Z,24.17
2023-02-14T04:12:18.221Z,23.65
2023-02-14T04:14:47.066Z,22.38
2023-02-14T04:17:34.833Z,23.52
2023-02-14T04:20:01.750Z,24.67
2023-02-14T04:22:28.715Z,22.00
2023-02-14T04:24:55.516Z,27.52
2023-02-14T04:27:22.338Z,22.65
2023-02-14T04:29:52.543Z,22.73
2023-02-14T04:32:22.118Z,22.42
2023-02-14T04:34:53.907Z,23.10
2023-02-14T04:37:20.814Z,22.92
2023-02-14T04:39:47.685Z,24.48
2023-02-14T04:42:16.861Z,21.15
2023-02-14T04:44:43.815Z,26.98
2023-02-14T04:47:10.774Z,24.77
2023-02-14T04:49:37.682Z,25.25
2023-02-14T04:52:05.663Z,25.95
2023-02-14T04:54:33.084Z,23.33
2023-02-14T04:57:00.267Z,22.98
2023-02-14T04:59:27.084Z,23.27
2023-02-14T05:01:54.374Z,24.52
2023-02-14T05:04:21.268Z,21.90
2023-02-14T05:06:48.125Z,23.00
2023-02-14T05:09:14.908Z,21.00
2023-02-14T05:11:41.688Z,23.05
2023-02-14T05:14:08.713Z,24.60
2023-02-14T05:16:35.556Z,24.75
2023-02-14T05:19:02.374Z,24.55
2023-02-14T05:21:32.913Z,25.50
2023-02-14T05:24:00.747Z,24.48
2023-02-14T05:26:28.263Z,22.63
2023-02-14T05:28:55.018Z,23.23
2023-02-14T05:31:21.911Z,22.90
2023-02-14T05:33:49.083Z,23.65
2023-02-14T05:36:15.870Z,22.73
2023-02-14T05:38:42.641Z,23.77
2023-02-14T05:41:09.431Z,23.27
2023-02-14T05:43:36.227Z,23.23
2023-02-14T05:46:03.082Z,22.52
2023-02-14T05:48:29.971Z,21.35
2023-02-14T05:50:56.741Z,28.60
2023-02-14T05:53:23.549Z,26.42
2023-02-14T05:55:50.335Z,21.80
2023-02-14T05:58:17.085Z,24.42
2023-02-14T06:00:43.835Z,27.25
2023-02-14T06:03:10.604Z,27.73
2023-02-14T06:05:37.343Z,26.92
2023-02-14T06:08:04.178Z,31.25
2023-02-14T06:10:31.023Z,34.63
2023-02-14T06:12:58.028Z,33.10
2023-02-14T06:15:24.896Z,34.75
2023-02-14T06:17:56.531Z,28.75
2023-02-14T06:20:24.624Z,36.08
2023-02-14T06:22:58.847Z,43.55
2023-02-14T06:25:26.010Z,28.58
2023-02-14T06:27:57.235Z,39.28
2023-02-14T06:30:24.865Z,47.33
2023-02-14T06:32:51.737Z,63.35
2023-02-14T06:35:18.673Z,34.03
2023-02-14T06:37:45.625Z,36.30
2023-02-14T06:40:13.459Z,42.47
2023-02-14T06:42:40.266Z,28.17
2023-02-14T06:45:08.175Z,33.58
2023-02-14T06:47:35.338Z,34.33
2023-02-14T06:50:04.997Z,30.00
2023-02-14T06:52:33.269Z,28.42
2023-02-14T06:55:00.110Z,30.08
2023-02-14T06:57:26.953Z,30.00
2023-02-14T06:59:53.721Z,25.63
2023-02-14T07:02:22.312Z,29.65
2023-02-14T07:04:51.847Z,30.83
2023-02-14T07:07:18.651Z,25.20
2023-02-14T07:09:45.445Z,28.65
2023-02-14T07:12:12.257Z,27.05
2023-02-14T07:14:39.077Z,33.70
2023-02-14T07:17:05.881Z,27.77
2023-02-14T07:19:35.858Z,42.78
2023-02-14T07:22:02.821Z,40.05
2023-02-14T07:24:29.622Z,31.60
2023-02-14T07:26:56.448Z,37.38
2023-02-14T07:29:23.242Z,26.40
2023-02-14T07:31:50.162Z,32.28
2023-02-14T07:34:17.040Z,45.97
2023-02-14T07:36:44.124Z,29.15
2023-02-14T07:39:11.473Z,53.03
2023-02-14T07:41:38.575Z,28.42
2023-02-14T07:44:05.366Z,31.05
2023-02-14T07:46:32.204Z,43.63
2023-02-14T07:48:59.044Z,39.40
2023-02-14T07:51:25.860Z,27.77
2023-02-14T07:53:52.707Z,22.50
2023-02-14T07:56:19.615Z,57.67
2023-02-14T07:58:46.709Z,25.05
2023-02-14T08:01:13.556Z,35.20
2023-02-14T08:03:40.341Z,23.35
2023-02-14T08:06:07.168Z,27.10
2023-02-14T08:08:34.044Z,37.50
2023-02-14T08:11:01.696Z,30.48
2023-02-14T08:13:28.969Z,34.80
2023-02-14T08:16:04.433Z,28.85
2023-02-14T08:18:45.914Z,25.38
2023-02-14T08:21:15.761Z,24.88
2023-02-14T08:23:42.816Z,20.52
2023-02-14T08:26:09.780Z,24.02
2023-02-14T08:28:36.682Z,20.45
2023-02-14T08:31:04.870Z,21.67
2023-02-14T08:33:31.828Z,21.33
2023-02-14T08:35:58.638Z,23.63
2023-02-14T08:38:25.494Z,21.10
2023-02-14T08:40:52.622Z,23.75
2023-02-14T08:43:19.617Z,23.08
2023-02-14T08:45:48.414Z,21.58
2023-02-14T08:48:15.365Z,23.85
2023-02-14T08:50:42.685Z,18.75
2023-02-14T08:53:12.625Z,22.40
2023-02-14T08:55:40.310Z,23.17
2023-02-14T08:58:08.170Z,22.40
2023-02-14T09:00:35.147Z,25.52
2023-02-14T09:03:02.057Z,23.65
2023-02-14T09:05:28.976Z,23.55
2023-02-14T09:07:56.394Z,27.42
2023-02-14T09:10:24.639Z,24.67
2023-02-14T09:12:51.513Z,21.63
2023-02-14T09:15:18.600Z,20.00
2023-02-14T09:17:45.519Z,22.98
2023-02-14T09:20:14.763Z,21.88
2023-02-14T09:22:41.697Z,22.17
2023-02-14T09:25:08.515Z,21.75
2023-02-14T09:27:35.763Z,22.02
2023-02-14T09:30:02.721Z,20.10
2023-02-14T09:32:30.011Z,22.83
2023-02-14T09:34:56.948Z,22.27
2023-02-14T09:37:42.142Z,22.90
2023-02-14T09:40:13.268Z,21.20
2023-02-14T09:42:50.977Z,21.77
2023-02-14T09:45:23.235Z,18.73
2023-02-14T09:48:21.595Z,22.15
2023-02-14T09:50:57.154Z,22.30
2023-02-14T09:53:33.154Z,20.40
2023-02-14T09:56:28.503Z,22.63
2023-02-14T09:59:45.925Z,23.40
2023-02-14T10:02:53.851Z,22.17
2023-02-14T10:05:37.568Z,21.88
2023-02-14T10:08:48.280Z,19.30
2023-02-14T10:11:22.834Z,20.50
2023-02-14T10:13:54.966Z,23.40
2023-02-14T10:16:33.996Z,20.30
2023-02-14T10:19:04.361Z,18.70
2023-02-14T10:21:41.247Z,19.00
2023-02-14T10:24:25.972Z,20.77
2023-02-14T10:27:02.007Z,18.50
2023-02-14T10:29:28.818Z,19.30
2023-02-14T10:32:00.547Z,25.10
2023-02-14T10:34:51.422Z,22.42
2023-02-14T10:37:46.316Z,21.65
2023-02-14T10:43:23.125Z,19.65
2023-02-14T10:46:27.622Z,19.65
2023-02-14T10:49:21.890Z,20.35
2023-02-14T10:52:24.796Z,20.58
2023-02-14T10:54:57.143Z,21.13
2023-02-14T10:57:33.927Z,22.55
2023-02-14T11:00:26.985Z,20.55
2023-02-14T11:03:05.796Z,21.27
2023-02-14T11:05:46.892Z,16.13
2023-02-14T11:08:35.482Z,17.42
2023-02-14T11:11:28.305Z,17.42
2023-02-14T11:13:55.228Z,16.88
2023-02-14T11:16:35.495Z,16.88
2023-02-14T11:19:37.225Z,19.52
2023-02-14T11:22:04.679Z,18.23
2023-02-14T11:24:47.189Z,16.23
2023-02-14T11:27:13.844Z,15.35
2023-02-14T11:29:48.154Z,16.10
2023-02-14T11:32:30.504Z,16.50
2023-02-14T11:35:07.201Z,14.98
2023-02-14T11:37:50.182Z,15.90
2023-02-14T11:40:38.244Z,16.52
2023-02-14T11:43:14.394Z,19.02
2023-02-14T11:45:44.278Z,15.23
2023-02-14T11:48:39.507Z,16.30
2023-02-14T11:51:16.033Z,15.00
2023-02-14T11:53:53.794Z,20.92
2023-02-14T11:56:23.187Z,14.43
2023-02-14T11:58:59.994Z,14.80
2023-02-14T12:01:33.197Z,15.30
2023-02-14T12:04:26.622Z,14.45
2023-02-14T12:06:55.064Z,17.13
2023-02-14T12:09:26.216Z,16.23
2023-02-14T12:12:00.005Z,16.60
2023-02-14T12:14:34.080Z,11.75
2023-02-14T12:17:29.009Z,13.65
2023-02-14T12:20:12.340Z,14.63
2023-02-14T12:22:50.327Z,15.27
2023-02-14T12:25:21.365Z,18.50
2023-02-14T12:27:56.657Z,14.00
2023-02-14T12:30:25.837Z,19.88
2023-02-14T12:32:56.193Z,17.40
2023-02-14T12:35:44.153Z,16.17
2023-02-14T12:38:31.993Z,16.55
2023-02-14T12:41:20.097Z,16.17
2023-02-14T12:43:57.427Z,15.48
2023-02-14T12:47:13.058Z,15.55
2023-02-14T12:52:49.241Z,12.30
2023-02-14T12:55:34.633Z,14.95
2023-02-14T12:58:43.625Z,15.77
2023-02-14T13:02:09.905Z,14.18
2023-02-14T13:04:49.952Z,17.52
2023-02-14T13:07:47.810Z,13.75
2023-02-14T13:10:44.566Z,14.45
2023-02-14T13:13:33.546Z,15.05
2023-02-14T13:19:38.814Z,12.55
2023-02-14T13:22:12.857Z,11.20
2023-02-14T13:25:00.041Z,16.23
2023-02-14T13:27:33.183Z,13.15
2023-02-14T13:30:05.593Z,15.18
2023-02-14T13:32:40.036Z,13.57
2023-02-14T13:35:08.200Z,13.30
2023-02-14T13:37:36.708Z,14.50
2023-02-14T13:40:16.398Z,14.98
2023-02-14T13:42:49.872Z,16.15
2023-02-14T13:45:40.598Z,17.60
2023-02-14T13:48:12.028Z,16.67
2023-02-14T13:51:01.316Z,13.60
2023-02-14T13:53:35.526Z,14.60
2023-02-14T13:56:33.434Z,11.57
2023-02-14T13:59:05.263Z,12.45
2023-02-14T14:01:51.441Z,15.57
2023-02-14T14:04:31.767Z,17.95
2023-02-14T14:07:04.986Z,13.85
2023-02-14T14:09:47.512Z,14.52
2023-02-14T14:12:26.115Z,14.48
2023-02-14T14:15:05.531Z,11.98
2023-02-14T14:17:50.262Z,16.80
2023-02-14T14:20:18.549Z,12.80
2023-02-14T14:23:01.134Z,12.43
2023-02-14T14:25:36.230Z,16.15
2023-02-14T14:28:18.754Z,14.30
2023-02-14T14:30:45.832Z,13.27
2023-02-14T14:33:33.446Z,11.30
2023-02-14T14:36:11.067Z,14.18
2023-02-14T14:39:02.102Z,13.38
2023-02-14T14:41:32.960Z,12.57
2023-02-14T14:44:00.247Z,14.77
2023-02-14T14:46:27.252Z,12.85
2023-02-14T14:48:55.993Z,12.85
2023-02-14T14:51:35.488Z,13.07
2023-02-14T14:54:08.015Z,13.88
2023-02-14T14:56:39.679Z,11.50
2023-02-14T14:59:22.456Z,14.10
2023-02-14T15:01:54.145Z,10.27
2023-02-14T15:04:35.285Z,11.10
2023-02-14T15:07:33.072Z,12.55
2023-02-14T15:10:01.160Z,10.60
2023-02-14T15:12:47.989Z,11.82
2023-02-14T15:15:17.953Z,11.25
2023-02-14T15:17:46.079Z,12.98
2023-02-14T15:20:23.724Z,14.45
2023-02-14T15:22:52.848Z,15.57
2023-02-14T15:25:44.481Z,9.48
2023-02-14T15:28:32.253Z,12.75
2023-02-14T15:31:05.931Z,9.65
2023-02-14T15:33:33.812Z,10.18
2023-02-14T15:36:08.759Z,10.55
2023-02-14T15:38:40.355Z,9.65
2023-02-14T15:41:08.191Z,9.88
2023-02-14T15:43:37.558Z,11.32
2023-02-14T15:46:37.105Z,11.07
2023-02-14T15:49:16.683Z,11.57
2023-02-14T15:51:43.952Z,10.88
2023-02-14T15:54:47.294Z,13.40
2023-02-14T15:57:30.077Z,12.23
2023-02-14T15:59:57.008Z,14.00
2023-02-14T16:02:40.606Z,11.18
2023-02-14T16:05:19.663Z,10.48
2023-02-14T16:08:27.341Z,10.40
2023-02-14T16:11:26.058Z,9.63
2023-02-14T16:13:53.259Z,9.48
2023-02-14T16:16:20.005Z,10.43
2023-02-14T16:18:50.479Z,9.10
2023-02-14T16:21:27.679Z,9.10
2023-02-14T16:24:06.749Z,10.25
2023-02-14T16:26:38.047Z,10.55
2023-02-14T16:29:11.671Z,10.25
2023-02-14T16:32:01.184Z,7.18
2023-02-14T16:34:30.649Z,11.35
2023-02-14T16:36:57.441Z,8.27
2023-02-14T16:39:26.185Z,10.23
2023-02-14T16:41:56.315Z,12.77
2023-02-14T16:44:23.109Z,12.23
2023-02-14T16:46:49.872Z,11.90
2023-02-14T16:49:16.752Z,11.93
2023-02-14T16:51:46.878Z,12.20
2023-02-14T16:54:19.883Z,13.88
2023-02-14T16:56:58.382Z,14.25
2023-02-14T16:59:25.208Z,12.73
2023-02-14T17:01:52.061Z,15.60
2023-02-14T17:04:18.878Z,12.05
2023-02-14T17:06:53.956Z,14.77
2023-02-14T17:09:27.459Z,17.75
2023-02-14T17:11:58.525Z,16.10
2023-02-14T17:14:30.367Z,15.65
2023-02-14T17:16:58.076Z,17.02
2023-02-14T17:19:25.229Z,16.88
2023-02-14T17:21:52.659Z,17.85
2023-02-14T17:24:19.426Z,16.05
2023-02-14T17:26:46.197Z,17.00
2023-02-14T17:29:13.369Z,19.73
2023-02-14T17:31:40.331Z,18.70
2023-02-14T17:34:07.281Z,19.08
2023-02-14T17:36:34.142Z,20.00
2023-02-14T17:39:03.323Z,20.30
2023-02-14T17:41:30.305Z,21.33
2023-02-14T17:44:00.300Z,20.75
2023-02-14T17:46:29.434Z,23.63
2023-02-14T17:48:57.600Z,27.27
2023-02-14T17:51:24.990Z,22.15
2023-02-14T17:53:51.799Z,22.95
2023-02-14T17:56:22.532Z,22.05
2023-02-14T17:58:51.406Z,23.48
2023-02-14T18:01:21.570Z,22.90
2023-02-14T18:03:48.739Z,24.05
2023-02-14T18:06:15.789Z,24.23
2023-02-14T18:08:46.194Z,27.98
2023-02-14T18:11:14.061Z,26.85
2023-02-14T18:13:41.328Z,25.70
2023-02-14T18:16:15.872Z,28.02
2023-02-14T18:18:42.951Z,25.77
2023-02-14T18:21:12.938Z,28.67
2023-02-14T18:23:39.972Z,31.42
2023-02-14T18:26:11.810Z,31.33
2023-02-14T18:28:38.942Z,31.90
2023-02-14T18:31:10.701Z,28.75
2023-02-14T18:33:38.511Z,32.10
2023-02-14T18:36:15.511Z,34.50
2023-02-14T18:38:45.495Z,29.55
2023-02-14T18:41:16.853Z,29.63
2023-02-14T18:43:44.966Z,30.88
2023-02-14T18:46:15.836Z,32.65
2023-02-14T18:48:42.883Z,33.05
2023-02-14T19:13:33.996Z,34.78
2023-02-14T19:16:00.830Z,35.40
2023-02-14T19:18:27.644Z,42.38
2023-02-14T19:20:54.449Z,53.47
2023-02-14T19:23:21.612Z,51.65
2023-02-14T19:25:48.530Z,44.15
2023-02-14T19:28:15.601Z,40.40
2023-02-14T19:30:42.432Z,44.85
2023-02-14T19:33:09.220Z,52.50
2023-02-14T19:35:35.996Z,53.88
2023-02-14T19:38:03.452Z,43.95
2023-02-14T19:40:30.907Z,154.15
2023-02-14T19:42:58.060Z,125.40
2023-02-14T19:45:24.974Z,46.22
2023-02-14T19:47:51.982Z,61.63
2023-02-14T19:50:20.423Z,49.83
2023-02-14T19:52:48.775Z,46.08
2023-02-14T19:55:22.146Z,48.03
2023-02-14T19:57:49.021Z,45.20
2023-02-14T20:00:16.935Z,65.43
2023-02-14T20:02:47.966Z,51.30
2023-02-14T20:05:16.569Z,49.92
2023-02-14T20:07:43.891Z,66.57
2023-02-14T20:10:12.254Z,65.15
2023-02-14T20:12:39.259Z,94.40
2023-02-14T20:15:09.209Z,56.65
2023-02-14T20:17:37.475Z,47.85
2023-02-14T20:20:08.372Z,52.80
2023-02-14T20:22:36.249Z,47.45
2023-02-14T20:25:03.077Z,42.55
2023-02-14T20:27:29.868Z,48.13
2023-02-14T20:29:56.772Z,45.78
2023-02-14T20:32:23.589Z,55.45
2023-02-14T20:34:51.748Z,52.80
2023-02-14T20:37:18.585Z,68.47
2023-02-14T20:39:45.465Z,49.28
2023-02-14T20:42:12.236Z,49.83
2023-02-14T20:44:39.070Z,50.42
2023-02-14T20:47:06.791Z,46.60
2023-02-14T20:49:35.589Z,56.45
2023-02-14T20:52:02.703Z,50.08
2023-02-14T20:54:30.367Z,64.32
2023-02-14T20:56:57.858Z,40.90
2023-02-14T20:59:28.508Z,45.13
2023-02-14T21:01:57.495Z,64.88
2023-02-14T21:04:25.221Z,33.78
2023-02-14T21:06:52.053Z,42.17
2023-02-14T21:09:20.632Z,46.83
2023-02-14T21:11:47.488Z,60.17
2023-02-14T21:14:14.506Z,36.40
2023-02-14T21:16:41.323Z,62.88
2023-02-14T21:19:08.173Z,44.28
2023-02-14T21:21:39.340Z,69.43
2023-02-14T21:24:15.536Z,58.38
2023-02-14T21:26:43.329Z,44.80
2023-02-14T21:29:10.432Z,43.90
2023-02-14T21:31:37.724Z,43.45
2023-02-14T21:34:04.784Z,42.00
2023-02-14T21:36:35.472Z,40.08
2023-02-14T21:39:04.547Z,48.05
2023-02-14T21:41:32.049Z,50.40
2023-02-14T21:44:00.809Z,43.97
2023-02-14T21:46:35.770Z,37.85
2023-02-14T21:49:24.454Z,49.35
2023-02-14T21:51:51.418Z,57.55
2023-02-14T21:54:18.247Z,48.10
2023-02-14T21:56:45.305Z,62.95
2023-02-14T21:59:12.561Z,58.90
2023-02-14T22:01:41.364Z,60.95
2023-02-14T22:04:12.130Z,39.35
2023-02-14T22:06:41.517Z,48.85
2023-02-14T22:09:13.974Z,31.40
2023-02-14T22:11:40.918Z,31.63
2023-02-14T22:14:07.851Z,28.08
2023-02-14T22:16:36.701Z,29.63
2023-02-14T22:19:05.408Z,24.80
2023-02-14T22:21:33.405Z,22.80
2023-02-14T22:24:01.329Z,22.85
2023-02-14T22:26:35.408Z,26.08
2023-02-14T22:31:35.257Z,19.98
2023-02-14T22:34:03.916Z,42.53
2023-02-14T22:36:30.937Z,22.40
2023-02-14T22:38:57.772Z,22.42
2023-02-14T22:41:25.648Z,22.02
2023-02-14T22:43:53.839Z,21.58
2023-02-14T22:46:24.900Z,25.30
2023-02-14T22:48:53.061Z,23.85
2023-02-14T22:51:21.361Z,21.45
2023-02-14T22:53:49.450Z,21.92
2023-02-14T22:56:24.396Z,20.83
2023-02-14T22:59:00.919Z,19.20
2023-02-14T23:01:28.530Z,20.52
2023-02-14T23:03:57.950Z,18.75
2023-02-14T23:06:28.332Z,19.75
2023-02-14T23:08:56.172Z,21.00
2023-02-14T23:11:30.534Z,20.83
2023-02-14T23:14:16.393Z,21.88
2023-02-14T23:17:02.485Z,20.08
2023-02-14T23:19:51.269Z,22.00
2023-02-14T23:22:26.486Z,20.50
2023-02-14T23:24:59.561Z,21.52
2023-02-14T23:27:37.182Z,18.43
2023-02-14T23:30:11.411Z,19.52
2023-02-14T23:32:38.308Z,20.13
2023-02-14T23:35:05.992Z,21.27
2023-02-14T23:37:33.478Z,23.75
2023-02-14T23:40:00.266Z,25.00
2023-02-14T23:42:28.105Z,21.40
2023-02-14T23:45:14.896Z,21.73
2023-02-14T23:47:41.663Z,21.55
2023-02-14T23:50:09.001Z,21.13
2023-02-14T23:52:38.284Z,19.67
2023-02-14T23:55:06.239Z,20.95
2023-02-14T23:57:32.995Z,25.50
